This is the latest recevied weather packets stored in our database for station/object KC4JY. If no packets are shown the sender has not sent any weather packets the latest 10 day(s).
| Time | Temp. | Humidity | Pressure | Rain* | Wind** | Luminosity | Snow |
|---|---|---|---|---|---|---|---|
| 1777940158 | 20.56° C | 54% | 1015.1 hPa | 0 mm | - | - | - |
| 1777939267 | 20.56° C | 54% | 1014.8 hPa | 0 mm | - | - | - |
| 1777938344 | 21.11° C | 53% | 1014.7 hPa | 0 mm | - | - | - |
| 1777937450 | 21.67° C | 52% | 1014.3 hPa | 0 mm | - | - | - |
| 1777936544 | 22.22° C | 52% | 1014.2 hPa | 0 mm | - | - | - |
| 1777935644 | 22.78° C | 50% | 1014.2 hPa | 0 mm | - | - | - |
| 1777934743 | 22.78° C | 51% | 1014.1 hPa | 0 mm | - | - | - |
| 1777933850 | 23.33° C | 50% | 1014 hPa | 0 mm | - | - | - |
| 1777932941 | 24.44° C | 45% | 1014 hPa | 0 mm | - | - | - |
| 1777932044 | 25° C | 37% | 1014 hPa | 0 mm | - | - | - |
| 1777931128 | 25.56° C | 35% | 1014.1 hPa | 0 mm | - | - | - |
| 1777930228 | 25.56° C | 33% | 1014 hPa | 0 mm | - | - | - |
| 1777929334 | 25.56° C | 32% | 1014.2 hPa | 0 mm | - | - | - |
| 1777928427 | 25° C | 34% | 1014.1 hPa | 0 mm | - | - | - |
| 1777927527 | 25° C | 33% | 1014.2 hPa | 0 mm | - | - | - |
| 1777926628 | 25.56° C | 33% | 1014.3 hPa | 0 mm | - | - | - |
| 1777925721 | 25.56° C | 34% | 1014.5 hPa | 0 mm | - | - | - |
| 1777924820 | 25° C | 34% | 1014.7 hPa | 0 mm | - | - | - |
| 1777923971 | 25° C | 34% | 1014.7 hPa | 0 mm | - | - | - |
| 1777923078 | 25° C | 35% | 1014.8 hPa | 0 mm | - | - | - |
| 1777922155 | 25° C | 33% | 1014.9 hPa | 0 mm | - | - | - |
| 1777921247 | 24.44° C | 34% | 1015 hPa | 0 mm | - | - | - |
| 1777920353 | 24.44° C | 33% | 1015.3 hPa | 0 mm | - | - | - |
| 1777919442 | 24.44° C | 35% | 1015.5 hPa | 0 mm | - | - | - |
| 1777918538 | 24.44° C | 37% | 1015.6 hPa | 0 mm | - | - | - |
* Rain latest hour (hover to see other rain measurements)
** Current wind speed in m/s (hover to see current wind gust speed)